CCA1111 ZBAA-ZBHH
Flight info
| Callsign | CCA1111 |
|---|---|
| Flight time | 0h 46m |
| Altitude | 21700 |
| Route | BOTPU9Z BOTPU W47 VIGEK W96 UPSUR W69 LUGVU LUGVU8ZA |
| Aircraft | B38M/M-SDE1FGHILORVWXY/HB1 |
Departure
| Time | 2026-05-04 14:00 |
|---|---|
| Airport | Beijing Capital International Airport (ZBAA) |
Arrival
| Time | 2026-05-04 14:46 |
|---|---|
| Airport | Hohhot Baita International Airport (ZBHH) |
| Time | Latitude | Longitude | Altitude | Speed | Heading |
|---|---|---|---|---|---|
| 2026-05-04 13:31 | 40.08281 | 116.58954 | 127 ft | 0 kts | 173° |
| 2026-05-04 13:45 | 40.08282 | 116.58954 | 127 ft | 1 kts | 173° |
| 2026-05-04 13:46 | 40.08298 | 116.58952 | 125 ft | 3 kts | 173° |
| 2026-05-04 13:46 | 40.08315 | 116.58949 | 124 ft | 2 kts | 173° |
| 2026-05-04 13:46 | 40.08332 | 116.58943 | 124 ft | 3 kts | 141° |
| 2026-05-04 13:46 | 40.08341 | 116.58925 | 121 ft | 3 kts | 95° |
| 2026-05-04 13:47 | 40.08341 | 116.58903 | 125 ft | 1 kts | 83° |
| 2026-05-04 13:47 | 40.08340 | 116.58895 | 125 ft | 0 kts | 83° |
| 2026-05-04 13:50 | 40.08342 | 116.58914 | 121 ft | 4 kts | 83° |
| 2026-05-04 13:50 | 40.08348 | 116.58981 | 124 ft | 11 kts | 83° |
| 2026-05-04 13:51 | 40.08360 | 116.59117 | 125 ft | 19 kts | 83° |
| 2026-05-04 13:51 | 40.08383 | 116.59256 | 125 ft | 13 kts | 46° |
| 2026-05-04 13:51 | 40.08413 | 116.59273 | 125 ft | 1 kts | 8° |
| 2026-05-04 13:51 | 40.08411 | 116.59271 | 125 ft | 1 kts | 164° |
| 2026-05-04 13:52 | 40.08305 | 116.59292 | 127 ft | 19 kts | 174° |
| 2026-05-04 13:52 | 40.08138 | 116.59319 | 123 ft | 26 kts | 174° |
| 2026-05-04 13:52 | 40.07953 | 116.59348 | 125 ft | 24 kts | 173° |
| 2026-05-04 13:53 | 40.07793 | 116.59373 | 123 ft | 23 kts | 173° |
| 2026-05-04 13:53 | 40.07629 | 116.59399 | 124 ft | 24 kts | 173° |
| 2026-05-04 13:53 | 40.07476 | 116.59423 | 125 ft | 13 kts | 173° |
| 2026-05-04 13:54 | 40.07280 | 116.59511 | 125 ft | 17 kts | 174° |
| 2026-05-04 13:54 | 40.07154 | 116.59530 | 125 ft | 20 kts | 173° |
| 2026-05-04 13:54 | 40.06849 | 116.59577 | 125 ft | 24 kts | 173° |
| 2026-05-04 13:55 | 40.06678 | 116.59604 | 126 ft | 25 kts | 173° |
| 2026-05-04 13:55 | 40.06328 | 116.59659 | 124 ft | 27 kts | 174° |
| 2026-05-04 13:55 | 40.06143 | 116.59688 | 124 ft | 24 kts | 173° |
| 2026-05-04 13:56 | 40.05969 | 116.59714 | 124 ft | 26 kts | 174° |
| 2026-05-04 13:56 | 40.05784 | 116.59744 | 126 ft | 24 kts | 173° |
| 2026-05-04 13:56 | 40.05508 | 116.59788 | 124 ft | 15 kts | 159° |
| 2026-05-04 13:57 | 40.05481 | 116.59858 | 124 ft | 0 kts | 75° |
| 2026-05-04 13:58 | 40.05483 | 116.59867 | 125 ft | 4 kts | 71° |
| 2026-05-04 13:58 | 40.05607 | 116.60001 | 124 ft | 15 kts | 14° |
| 2026-05-04 13:58 | 40.05706 | 116.59989 | 124 ft | 16 kts | 352° |
| 2026-05-04 13:59 | 40.05851 | 116.59966 | 122 ft | 38 kts | 353° |
| 2026-05-04 13:59 | 40.06373 | 116.59887 | 126 ft | 110 kts | 353° |
| 2026-05-04 13:59 | 40.08500 | 116.59571 | 670 ft | 176 kts | 354° |
| 2026-05-04 14:00 | 40.09737 | 116.59385 | 1332 ft | 184 kts | 348° |
| 2026-05-04 14:00 | 40.12435 | 116.58922 | 2535 ft | 207 kts | 348° |
| 2026-05-04 14:00 | 40.13907 | 116.58686 | 3211 ft | 216 kts | 348° |
| 2026-05-04 14:01 | 40.15435 | 116.58435 | 3896 ft | 230 kts | 348° |
| 2026-05-04 14:01 | 40.17090 | 116.58179 | 4475 ft | 249 kts | 349° |
| 2026-05-04 14:01 | 40.20789 | 116.57601 | 5679 ft | 284 kts | 349° |
| 2026-05-04 14:02 | 40.22748 | 116.57291 | 6534 ft | 288 kts | 349° |
| 2026-05-04 14:02 | 40.24713 | 116.56740 | 7483 ft | 282 kts | 331° |
| 2026-05-04 14:02 | 40.26274 | 116.55333 | 8458 ft | 275 kts | 315° |
| 2026-05-04 14:02 | 40.27736 | 116.53705 | 9407 ft | 276 kts | 316° |
| 2026-05-04 14:03 | 40.29192 | 116.52065 | 10306 ft | 278 kts | 316° |
| 2026-05-04 14:03 | 40.30623 | 116.50250 | 10770 ft | 293 kts | 303° |
| 2026-05-04 14:03 | 40.31443 | 116.47793 | 11369 ft | 302 kts | 281° |
| 2026-05-04 14:03 | 40.31584 | 116.44993 | 12008 ft | 313 kts | 272° |
| 2026-05-04 14:04 | 40.31639 | 116.39189 | 13670 ft | 324 kts | 272° |
| 2026-05-04 14:04 | 40.31650 | 116.36226 | 14452 ft | 329 kts | 272° |
| 2026-05-04 14:04 | 40.31653 | 116.33201 | 15273 ft | 333 kts | 271° |
| 2026-05-04 14:05 | 40.31653 | 116.27263 | 16818 ft | 342 kts | 271° |
| 2026-05-04 14:05 | 40.31651 | 116.24124 | 17584 ft | 346 kts | 271° |
| 2026-05-04 14:05 | 40.31647 | 116.20956 | 18321 ft | 351 kts | 271° |
| 2026-05-04 14:06 | 40.31643 | 116.17732 | 18956 ft | 355 kts | 271° |
| 2026-05-04 14:06 | 40.31637 | 116.14523 | 19618 ft | 358 kts | 271° |
| 2026-05-04 14:06 | 40.31631 | 116.11280 | 20267 ft | 362 kts | 271° |
| 2026-05-04 14:06 | 40.31623 | 116.07952 | 20927 ft | 365 kts | 271° |
| 2026-05-04 14:07 | 40.31615 | 116.04621 | 21422 ft | 369 kts | 271° |
| 2026-05-04 14:07 | 40.31605 | 116.01264 | 21558 ft | 366 kts | 271° |
| 2026-05-04 14:07 | 40.31595 | 115.97935 | 21554 ft | 366 kts | 271° |
| 2026-05-04 14:07 | 40.31584 | 115.94597 | 21565 ft | 366 kts | 271° |
| 2026-05-04 14:08 | 40.31573 | 115.91254 | 21557 ft | 366 kts | 271° |
| 2026-05-04 14:08 | 40.31560 | 115.87911 | 21558 ft | 367 kts | 271° |
| 2026-05-04 14:08 | 40.31547 | 115.84560 | 21556 ft | 367 kts | 271° |
| 2026-05-04 14:08 | 40.31532 | 115.81252 | 21558 ft | 367 kts | 271° |
| 2026-05-04 14:09 | 40.31381 | 115.74451 | 21548 ft | 388 kts | 261° |
| 2026-05-04 14:09 | 40.30468 | 115.71054 | 21544 ft | 406 kts | 242° |
| 2026-05-04 14:10 | 40.26165 | 115.65967 | 21541 ft | 440 kts | 207° |
| 2026-05-04 14:10 | 40.23390 | 115.64175 | 21541 ft | 447 kts | 208° |
| 2026-05-04 14:10 | 40.21547 | 115.62944 | 21538 ft | 449 kts | 208° |
| 2026-05-04 14:10 | 40.18767 | 115.61079 | 21547 ft | 450 kts | 209° |
| 2026-05-04 14:11 | 40.15972 | 115.59199 | 21558 ft | 450 kts | 209° |
| 2026-05-04 14:11 | 40.10407 | 115.55460 | 21564 ft | 450 kts | 209° |
| 2026-05-04 14:11 | 40.07625 | 115.53593 | 21571 ft | 450 kts | 209° |
| 2026-05-04 14:12 | 40.04866 | 115.51672 | 21560 ft | 448 kts | 214° |
| 2026-05-04 14:12 | 40.02493 | 115.49091 | 21551 ft | 444 kts | 230° |
| 2026-05-04 14:12 | 39.99726 | 115.42150 | 21585 ft | 422 kts | 258° |
| 2026-05-04 14:13 | 39.99409 | 115.38412 | 21591 ft | 413 kts | 270° |
| 2026-05-04 14:13 | 39.99408 | 115.34615 | 21565 ft | 426 kts | 272° |
| 2026-05-04 14:13 | 39.99504 | 115.30714 | 21562 ft | 434 kts | 274° |
| 2026-05-04 14:13 | 39.99656 | 115.26763 | 21570 ft | 437 kts | 274° |
| 2026-05-04 14:14 | 39.99701 | 115.25712 | 21567 ft | 437 kts | 274° |
| 2026-05-04 14:14 | 40.00040 | 115.18442 | 21599 ft | 438 kts | 275° |
| 2026-05-04 14:14 | 40.00237 | 115.14469 | 21576 ft | 438 kts | 275° |
| 2026-05-04 14:15 | 40.00630 | 115.06571 | 21566 ft | 439 kts | 275° |
| 2026-05-04 14:15 | 40.01021 | 114.98632 | 21558 ft | 439 kts | 275° |
| 2026-05-04 14:16 | 40.01408 | 114.90673 | 21552 ft | 440 kts | 275° |
| 2026-05-04 14:16 | 40.01600 | 114.86675 | 21550 ft | 440 kts | 275° |
| 2026-05-04 14:17 | 40.01979 | 114.78697 | 21550 ft | 440 kts | 275° |
| 2026-05-04 14:17 | 40.02166 | 114.74713 | 21550 ft | 440 kts | 275° |
| 2026-05-04 14:17 | 40.02537 | 114.66734 | 21546 ft | 440 kts | 275° |
| 2026-05-04 14:18 | 40.02718 | 114.62797 | 21545 ft | 440 kts | 275° |
| 2026-05-04 14:18 | 40.03080 | 114.54822 | 21549 ft | 440 kts | 275° |
| 2026-05-04 14:19 | 40.03438 | 114.46828 | 21544 ft | 440 kts | 275° |
| 2026-05-04 14:19 | 40.03615 | 114.42844 | 21539 ft | 440 kts | 275° |
| 2026-05-04 14:19 | 40.03790 | 114.38848 | 21548 ft | 440 kts | 275° |
| 2026-05-04 14:19 | 40.03963 | 114.34874 | 21541 ft | 440 kts | 275° |
| 2026-05-04 14:20 | 40.04136 | 114.30878 | 21540 ft | 439 kts | 275° |
| 2026-05-04 14:20 | 40.04304 | 114.26951 | 21542 ft | 439 kts | 275° |
| 2026-05-04 14:20 | 40.04475 | 114.22968 | 21540 ft | 439 kts | 275° |
| 2026-05-04 14:21 | 40.05068 | 114.15066 | 21530 ft | 435 kts | 288° |
| 2026-05-04 14:21 | 40.06232 | 114.11451 | 21548 ft | 432 kts | 298° |
| 2026-05-04 14:21 | 40.07605 | 114.07952 | 21543 ft | 432 kts | 299° |
| 2026-05-04 14:21 | 40.09006 | 114.04480 | 21543 ft | 432 kts | 299° |
| 2026-05-04 14:22 | 40.10419 | 114.01026 | 21543 ft | 432 kts | 299° |
| 2026-05-04 14:22 | 40.11820 | 113.97556 | 21541 ft | 432 kts | 299° |
| 2026-05-04 14:22 | 40.13225 | 113.94090 | 21539 ft | 431 kts | 299° |
| 2026-05-04 14:22 | 40.14633 | 113.90619 | 21539 ft | 431 kts | 299° |
| 2026-05-04 14:23 | 40.17446 | 113.83681 | 21542 ft | 431 kts | 299° |
| 2026-05-04 14:23 | 40.18849 | 113.80216 | 21537 ft | 431 kts | 299° |
| 2026-05-04 14:23 | 40.20251 | 113.76748 | 21539 ft | 431 kts | 299° |
| 2026-05-04 14:24 | 40.21651 | 113.73281 | 21540 ft | 431 kts | 299° |
| 2026-05-04 14:24 | 40.23052 | 113.69809 | 21543 ft | 431 kts | 299° |
| 2026-05-04 14:24 | 40.24452 | 113.66335 | 21539 ft | 431 kts | 299° |
| 2026-05-04 14:24 | 40.25864 | 113.62870 | 21542 ft | 431 kts | 300° |
| 2026-05-04 14:25 | 40.27279 | 113.59405 | 21537 ft | 431 kts | 300° |
| 2026-05-04 14:25 | 40.30104 | 113.52471 | 21546 ft | 431 kts | 299° |
| 2026-05-04 14:25 | 40.31515 | 113.48998 | 21544 ft | 431 kts | 299° |
| 2026-05-04 14:26 | 40.32904 | 113.45579 | 21543 ft | 431 kts | 299° |
| 2026-05-04 14:26 | 40.34312 | 113.42110 | 21546 ft | 431 kts | 299° |
| 2026-05-04 14:26 | 40.35721 | 113.38632 | 21545 ft | 431 kts | 299° |
| 2026-05-04 14:26 | 40.37140 | 113.35125 | 21546 ft | 431 kts | 299° |
| 2026-05-04 14:27 | 40.38527 | 113.31694 | 21545 ft | 431 kts | 299° |
| 2026-05-04 14:27 | 40.39931 | 113.28215 | 21550 ft | 431 kts | 299° |
| 2026-05-04 14:27 | 40.41332 | 113.24741 | 21551 ft | 431 kts | 299° |
| 2026-05-04 14:27 | 40.42735 | 113.21259 | 21548 ft | 431 kts | 299° |
| 2026-05-04 14:28 | 40.44134 | 113.17782 | 21544 ft | 431 kts | 299° |
| 2026-05-04 14:28 | 40.45537 | 113.14292 | 21546 ft | 431 kts | 299° |
| 2026-05-04 14:28 | 40.46938 | 113.10804 | 21547 ft | 431 kts | 299° |
| 2026-05-04 14:28 | 40.48330 | 113.07315 | 21549 ft | 432 kts | 298° |
| 2026-05-04 14:29 | 40.51108 | 113.00328 | 21546 ft | 431 kts | 298° |
| 2026-05-04 14:29 | 40.53888 | 112.93319 | 21551 ft | 431 kts | 298° |
| 2026-05-04 14:30 | 40.55272 | 112.89825 | 21544 ft | 431 kts | 298° |
| 2026-05-04 14:30 | 40.56658 | 112.86322 | 21551 ft | 431 kts | 298° |
| 2026-05-04 14:30 | 40.59005 | 112.79133 | 21544 ft | 434 kts | 282° |
| 2026-05-04 14:31 | 40.59432 | 112.75193 | 21554 ft | 435 kts | 279° |
| 2026-05-04 14:31 | 40.59858 | 112.67419 | 20923 ft | 417 kts | 275° |
| 2026-05-04 14:32 | 40.60188 | 112.59838 | 19631 ft | 412 kts | 275° |
| 2026-05-04 14:32 | 40.60350 | 112.56081 | 18991 ft | 410 kts | 274° |
| 2026-05-04 14:32 | 40.60509 | 112.52390 | 18367 ft | 408 kts | 274° |
| 2026-05-04 14:32 | 40.60667 | 112.48677 | 17670 ft | 407 kts | 274° |
| 2026-05-04 14:33 | 40.60822 | 112.44972 | 17002 ft | 404 kts | 274° |
| 2026-05-04 14:33 | 40.60976 | 112.41295 | 16379 ft | 400 kts | 274° |
| 2026-05-04 14:33 | 40.61128 | 112.37647 | 15768 ft | 396 kts | 274° |
| 2026-05-04 14:33 | 40.61276 | 112.34047 | 15164 ft | 393 kts | 273° |
| 2026-05-04 14:34 | 40.61423 | 112.30451 | 14578 ft | 389 kts | 273° |
| 2026-05-04 14:34 | 40.61565 | 112.26947 | 14004 ft | 387 kts | 273° |
| 2026-05-04 14:34 | 40.61662 | 112.23418 | 13319 ft | 386 kts | 271° |
| 2026-05-04 14:34 | 40.61737 | 112.19911 | 12699 ft | 378 kts | 271° |
| 2026-05-04 14:35 | 40.61813 | 112.16532 | 12188 ft | 359 kts | 271° |
| 2026-05-04 14:35 | 40.61885 | 112.13314 | 11722 ft | 347 kts | 271° |
| 2026-05-04 14:35 | 40.61956 | 112.10178 | 11503 ft | 338 kts | 271° |
| 2026-05-04 14:35 | 40.62023 | 112.07133 | 11386 ft | 326 kts | 271° |
| 2026-05-04 14:36 | 40.62087 | 112.04201 | 11245 ft | 315 kts | 271° |
| 2026-05-04 14:36 | 40.62148 | 112.01367 | 11079 ft | 305 kts | 270° |
| 2026-05-04 14:36 | 40.62207 | 111.98612 | 10923 ft | 296 kts | 270° |
| 2026-05-04 14:36 | 40.62263 | 111.95944 | 10766 ft | 287 kts | 270° |
| 2026-05-04 14:37 | 40.62317 | 111.93387 | 10621 ft | 279 kts | 270° |
| 2026-05-04 14:37 | 40.62369 | 111.90872 | 10480 ft | 271 kts | 270° |
| 2026-05-04 14:37 | 40.62419 | 111.88430 | 10343 ft | 262 kts | 270° |
| 2026-05-04 14:37 | 40.62467 | 111.86058 | 10214 ft | 258 kts | 270° |
| 2026-05-04 14:38 | 40.62514 | 111.83684 | 10064 ft | 260 kts | 270° |
| 2026-05-04 14:38 | 40.62562 | 111.81275 | 9763 ft | 267 kts | 270° |
| 2026-05-04 14:38 | 40.62610 | 111.78818 | 9433 ft | 269 kts | 270° |
| 2026-05-04 14:38 | 40.62657 | 111.76362 | 9113 ft | 268 kts | 269° |
| 2026-05-04 14:39 | 40.62705 | 111.73913 | 8806 ft | 267 kts | 269° |
| 2026-05-04 14:39 | 40.62751 | 111.71508 | 8517 ft | 265 kts | 269° |
| 2026-05-04 14:39 | 40.63037 | 111.69116 | 8240 ft | 267 kts | 289° |
| 2026-05-04 14:40 | 40.65651 | 111.66059 | 7950 ft | 254 kts | 339° |
| 2026-05-04 14:40 | 40.67317 | 111.65474 | 7846 ft | 245 kts | 340° |
| 2026-05-04 14:40 | 40.68927 | 111.64920 | 7757 ft | 235 kts | 340° |
| 2026-05-04 14:40 | 40.70487 | 111.64393 | 7616 ft | 228 kts | 340° |
| 2026-05-04 14:41 | 40.71989 | 111.63826 | 7398 ft | 223 kts | 336° |
| 2026-05-04 14:41 | 40.73458 | 111.63215 | 7194 ft | 219 kts | 337° |
| 2026-05-04 14:41 | 40.76263 | 111.62067 | 6933 ft | 201 kts | 336° |
| 2026-05-04 14:42 | 40.78990 | 111.61582 | 6482 ft | 208 kts | 16° |
| 2026-05-04 14:42 | 40.80180 | 111.62620 | 6193 ft | 203 kts | 52° |
| 2026-05-04 14:42 | 40.80755 | 111.64234 | 6012 ft | 191 kts | 79° |
| 2026-05-04 14:43 | 40.81081 | 111.65897 | 5766 ft | 183 kts | 79° |
| 2026-05-04 14:43 | 40.81434 | 111.67478 | 5555 ft | 177 kts | 76° |
| 2026-05-04 14:43 | 40.81799 | 111.69014 | 5299 ft | 173 kts | 76° |
| 2026-05-04 14:43 | 40.82151 | 111.70506 | 5088 ft | 172 kts | 76° |
| 2026-05-04 14:44 | 40.82505 | 111.72005 | 4865 ft | 170 kts | 75° |
| 2026-05-04 14:44 | 40.82850 | 111.73472 | 4632 ft | 165 kts | 75° |
| 2026-05-04 14:44 | 40.83183 | 111.74897 | 4410 ft | 161 kts | 73° |
| 2026-05-04 14:44 | 40.83413 | 111.75873 | 4259 ft | 158 kts | 72° |
| 2026-05-04 14:45 | 40.83735 | 111.77235 | 4040 ft | 152 kts | 72° |
| 2026-05-04 14:45 | 40.84050 | 111.78568 | 3830 ft | 152 kts | 72° |
| 2026-05-04 14:45 | 40.84362 | 111.79899 | 3624 ft | 151 kts | 71° |
| 2026-05-04 14:45 | 40.84673 | 111.81171 | 3531 ft | 123 kts | 72° |
| 2026-05-04 14:46 | 40.84854 | 111.81941 | 3539 ft | 56 kts | 71° |
| 2026-05-04 14:46 | 40.84964 | 111.82419 | 3542 ft | 54 kts | 73° |
| 2026-05-04 14:46 | 40.85057 | 111.82761 | 3548 ft | 32 kts | 59° |
| 2026-05-04 14:46 | 40.85176 | 111.82948 | 3552 ft | 21 kts | 41° |
| 2026-05-04 14:47 | 40.85269 | 111.82972 | 3549 ft | 8 kts | 302° |
| 2026-05-04 14:47 | 40.85262 | 111.82886 | 3547 ft | 11 kts | 252° |
| 2026-05-04 14:47 | 40.85236 | 111.82777 | 3547 ft | 14 kts | 253° |
| 2026-05-04 14:47 | 40.85206 | 111.82643 | 3545 ft | 17 kts | 253° |
| 2026-05-04 14:48 | 40.85169 | 111.82485 | 3545 ft | 20 kts | 252° |
| 2026-05-04 14:48 | 40.85126 | 111.82307 | 3543 ft | 20 kts | 252° |
| 2026-05-04 14:48 | 40.85088 | 111.82146 | 3543 ft | 15 kts | 253° |
| 2026-05-04 14:48 | 40.85104 | 111.82086 | 3542 ft | 7 kts | 336° |
| 2026-05-04 14:49 | 40.85156 | 111.82064 | 3543 ft | 9 kts | 342° |
| 2026-05-04 14:49 | 40.85222 | 111.82038 | 3543 ft | 11 kts | 343° |
| 2026-05-04 14:49 | 40.85299 | 111.82007 | 3543 ft | 13 kts | 335° |
| 2026-05-04 14:49 | 40.85310 | 111.81904 | 3542 ft | 14 kts | 254° |
| 2026-05-04 14:50 | 40.85280 | 111.81776 | 3540 ft | 13 kts | 252° |
| 2026-05-04 14:50 | 40.85253 | 111.81662 | 3539 ft | 12 kts | 252° |
| 2026-05-04 14:50 | 40.85245 | 111.81576 | 3538 ft | 6 kts | 310° |
| 2026-05-04 14:50 | 40.85290 | 111.81547 | 3538 ft | 8 kts | 341° |
| 2026-05-04 14:51 | 40.85313 | 111.81537 | 3538 ft | 1 kts | 342° |
| 2026-05-04 14:51 | 40.85316 | 111.81536 | 3538 ft | 0 kts | 342° |